Terminal Aerodrome Forecast
Issued by NWS

Home | Current Version | Previous Version | Graphics & Text | Print | Product List | Glossary On
Versions: 1 2 3 4 5 6 7 8 9 10 11 12 13 14 15
345
FTUS45 KGGW 161128
TAFSDY
TAF
KSDY 161128Z 1612/1712 02005KT P6SM SHRA SCT005 OVC040
     FM161500 04009KT 5SM -SHRA OVC015
     FM161800 05013KT 5SM SHRA VCTS OVC010CB
     FM170200 03011KT P6SM -SHRA OVC020
     FM170500 02011KT P6SM OVC035=

USA.gov is the U.S. government's official web portal to all federal, state and local government web resources and services.